createdAt,value
2023-01-15T00:01:29.759Z,92336.22
2023-01-15T00:04:03.439Z,92330.78
2023-01-15T00:06:36.019Z,92333.53
2023-01-15T00:09:09.007Z,92333.53
2023-01-15T00:11:41.953Z,92328.56
2023-01-15T00:14:14.101Z,92325.69
2023-01-15T00:16:46.419Z,92325.88
2023-01-15T00:19:18.768Z,92314.09
2023-01-15T00:21:52.100Z,92330.44
2023-01-15T00:24:42.179Z,92326.59
2023-01-15T00:27:33.279Z,92326.50
2023-01-15T00:30:06.459Z,92326.97
2023-01-15T00:32:38.899Z,92325.56
2023-01-15T00:35:12.555Z,92326.44
2023-01-15T00:37:44.680Z,92321.91
2023-01-15T00:40:18.011Z,92316.81
2023-01-15T00:42:54.636Z,92327.41
2023-01-15T00:45:26.903Z,92322.56
2023-01-15T00:47:59.177Z,92319.97
2023-01-15T00:50:32.452Z,92312.56
2023-01-15T00:53:04.875Z,92316.63
2023-01-15T00:55:36.970Z,92319.03
2023-01-15T00:58:09.736Z,92315.56
2023-01-15T01:00:42.042Z,92323.13
2023-01-15T01:03:14.216Z,92319.81
2023-01-15T01:05:46.266Z,92324.25
2023-01-15T01:08:19.363Z,92327.66
2023-01-15T01:11:00.977Z,92329.16
2023-01-15T01:13:33.734Z,92323.78
2023-01-15T01:16:20.751Z,92318.69
2023-01-15T01:18:53.277Z,92318.41
2023-01-15T01:21:26.018Z,92319.75
2023-01-15T01:23:58.310Z,92321.25
2023-01-15T01:26:30.372Z,92309.13
2023-01-15T01:29:03.840Z,92310.88
2023-01-15T01:31:35.848Z,92315.13
2023-01-15T01:34:08.834Z,92320.06
2023-01-15T01:36:43.035Z,92319.03
2023-01-15T01:39:16.881Z,92313.63
2023-01-15T01:41:48.896Z,92304.88
2023-01-15T01:44:39.449Z,92312.69
2023-01-15T01:47:14.825Z,92314.53
2023-01-15T01:49:47.645Z,92313.03
2023-01-15T01:52:22.510Z,92318.19
2023-01-15T01:54:55.235Z,92322.88
2023-01-15T01:57:27.431Z,92328.03
2023-01-15T02:00:00.992Z,92319.50
2023-01-15T02:02:35.133Z,92324.66
2023-01-15T02:05:08.461Z,92318.00
2023-01-15T02:07:40.571Z,92322.13
2023-01-15T02:10:14.491Z,92321.91
2023-01-15T02:12:49.947Z,92312.84
2023-01-15T02:15:26.299Z,92315.97
2023-01-15T02:18:02.659Z,92310.03
2023-01-15T02:20:37.655Z,92312.13
2023-01-15T02:23:23.084Z,92313.63
2023-01-15T02:26:01.715Z,92308.84
2023-01-15T02:28:36.467Z,92305.75
2023-01-15T02:31:11.436Z,92302.97
2023-01-15T02:33:47.241Z,92304.53
2023-01-15T02:36:22.729Z,92312.28
2023-01-15T02:38:57.368Z,92313.81
2023-01-15T02:41:35.656Z,92306.03
2023-01-15T02:44:11.017Z,92296.53
2023-01-15T02:46:43.915Z,92300.69
2023-01-15T02:49:19.331Z,92305.31
2023-01-15T02:51:57.119Z,92305.53
2023-01-15T02:54:32.324Z,92310.97
2023-01-15T02:57:04.813Z,92304.28
2023-01-15T02:59:39.147Z,92308.13
2023-01-15T03:02:15.701Z,92307.88
2023-01-15T03:04:51.552Z,92310.16
2023-01-15T03:07:25.531Z,92313.75
2023-01-15T03:09:58.680Z,92314.00
2023-01-15T03:12:57.346Z,92312.75
2023-01-15T03:15:54.888Z,92312.28
2023-01-15T03:18:28.216Z,92310.94
2023-01-15T03:21:05.339Z,92311.66
2023-01-15T03:23:39.128Z,92304.94
2023-01-15T03:26:11.715Z,92304.19
2023-01-15T03:28:47.785Z,92300.00
2023-01-15T03:31:20.877Z,92300.47
2023-01-15T03:33:54.051Z,92306.41
2023-01-15T03:36:28.006Z,92307.91
2023-01-15T03:39:05.452Z,92299.38
2023-01-15T03:42:03.397Z,92308.00
2023-01-15T03:44:39.084Z,92298.97
2023-01-15T03:47:20.776Z,92300.94
2023-01-15T03:49:57.192Z,92300.19
2023-01-15T03:52:39.240Z,92303.72
2023-01-15T03:55:14.733Z,92297.75
2023-01-15T03:57:55.148Z,92295.41
2023-01-15T04:00:30.570Z,92289.28
2023-01-15T04:03:07.081Z,92298.50
2023-01-15T04:05:39.857Z,92292.75
2023-01-15T04:08:13.162Z,92290.69
2023-01-15T04:10:53.221Z,92290.41
2023-01-15T04:13:25.802Z,92286.75
2023-01-15T04:15:59.342Z,92288.06
2023-01-15T04:18:32.183Z,92297.47
2023-01-15T04:21:05.585Z,92297.25
2023-01-15T04:23:39.598Z,92294.72
2023-01-15T04:26:11.717Z,92297.53
2023-01-15T04:28:43.930Z,92289.00
2023-01-15T04:31:16.150Z,92303.22
2023-01-15T04:33:48.849Z,92307.38
2023-01-15T04:36:20.914Z,92307.03
2023-01-15T04:38:53.997Z,92297.31
2023-01-15T04:41:44.375Z,92292.16
2023-01-15T04:44:16.542Z,92300.84
2023-01-15T04:46:48.546Z,92294.13
2023-01-15T04:49:21.284Z,92298.00
2023-01-15T04:51:53.408Z,92294.16
2023-01-15T04:54:25.404Z,92297.81
2023-01-15T04:56:57.672Z,92301.66
2023-01-15T04:59:29.672Z,92297.69
2023-01-15T05:02:05.985Z,92297.16
2023-01-15T05:04:39.584Z,92289.97
2023-01-15T05:07:11.666Z,92288.97
2023-01-15T05:09:43.783Z,92296.38
2023-01-15T05:12:15.844Z,92287.34
2023-01-15T05:14:48.188Z,92291.97
2023-01-15T05:17:20.186Z,92290.41
2023-01-15T05:19:52.972Z,92296.34
2023-01-15T05:22:25.084Z,92291.66
2023-01-15T05:24:57.185Z,92294.88
2023-01-15T05:27:30.424Z,92300.13
2023-01-15T05:30:02.533Z,92304.22
2023-01-15T05:32:34.570Z,92303.06
2023-01-15T05:35:07.953Z,92307.81
2023-01-15T05:37:39.979Z,92307.22
2023-01-15T05:40:12.194Z,92305.34
2023-01-15T05:42:44.267Z,92308.84
2023-01-15T05:45:16.327Z,92308.22
2023-01-15T05:47:48.305Z,92308.78
2023-01-15T05:50:21.066Z,92321.09
2023-01-15T05:52:53.100Z,92317.19
2023-01-15T05:55:25.184Z,92321.25
2023-01-15T05:57:57.809Z,92314.00
2023-01-15T06:00:30.655Z,92311.91
2023-01-15T06:03:02.691Z,92310.63
2023-01-15T06:05:35.494Z,92312.19
2023-01-15T06:08:07.489Z,92314.31
2023-01-15T06:10:39.595Z,92315.78
2023-01-15T06:13:11.970Z,92315.59
2023-01-15T06:15:44.445Z,92312.56
2023-01-15T06:18:16.512Z,92314.13
2023-01-15T06:20:49.210Z,92311.34
2023-01-15T06:23:21.275Z,92307.22
2023-01-15T06:25:53.343Z,92305.72
2023-01-15T06:28:25.386Z,92302.06
2023-01-15T06:30:57.463Z,92299.56
2023-01-15T06:33:29.538Z,92305.56
2023-01-15T06:36:06.343Z,92306.09
2023-01-15T06:38:39.208Z,92306.38
2023-01-15T06:41:27.027Z,92305.19
2023-01-15T06:44:17.359Z,92303.09
2023-01-15T06:47:08.374Z,92302.78
2023-01-15T06:49:40.525Z,92306.19
2023-01-15T06:52:13.272Z,92305.75
2023-01-15T06:54:45.348Z,92301.94
2023-01-15T06:57:18.440Z,92303.78
2023-01-15T06:59:51.192Z,92307.16
2023-01-15T07:02:23.437Z,92302.78
2023-01-15T07:04:55.539Z,92300.44
2023-01-15T07:07:28.704Z,92311.03
2023-01-15T07:10:00.952Z,92303.56
2023-01-15T07:12:34.567Z,92309.00
2023-01-15T07:15:07.178Z,92303.88
2023-01-15T07:17:39.249Z,92312.19
2023-01-15T07:20:11.985Z,92316.56
2023-01-15T07:22:44.778Z,92317.44
2023-01-15T07:25:16.771Z,92324.13
2023-01-15T07:27:48.800Z,92330.84
2023-01-15T07:30:20.954Z,92330.84
2023-01-15T07:32:52.933Z,92332.88
2023-01-15T07:35:25.008Z,92336.50
2023-01-15T07:37:57.667Z,92324.22
2023-01-15T07:40:29.750Z,92328.41
2023-01-15T07:43:19.861Z,92335.19
2023-01-15T07:46:11.691Z,92331.13
2023-01-15T07:49:01.731Z,92334.34
2023-01-15T07:51:33.814Z,92335.41
2023-01-15T07:54:06.657Z,92328.06
2023-01-15T07:56:38.818Z,92320.72
2023-01-15T07:59:10.855Z,92322.91
2023-01-15T08:01:43.203Z,92323.81
2023-01-15T08:04:15.408Z,92322.09
2023-01-15T08:06:47.442Z,92309.53
2023-01-15T08:09:20.208Z,92322.69
2023-01-15T08:12:10.771Z,92323.53
2023-01-15T08:15:01.279Z,92320.28
2023-01-15T08:17:33.375Z,92323.47
2023-01-15T08:20:06.574Z,92324.00
2023-01-15T08:22:39.501Z,92333.41
2023-01-15T08:25:13.060Z,92339.44
2023-01-15T08:27:45.385Z,92335.16
2023-01-15T08:30:18.582Z,92337.28
2023-01-15T08:32:50.567Z,92343.56
2023-01-15T08:35:23.159Z,92343.63
2023-01-15T08:37:55.170Z,92341.28
2023-01-15T08:40:27.937Z,92336.66
2023-01-15T08:42:59.972Z,92345.47
2023-01-15T08:45:32.518Z,92328.72
2023-01-15T08:48:04.715Z,92332.06
2023-01-15T08:50:36.804Z,92332.91
2023-01-15T08:53:08.885Z,92335.25
2023-01-15T08:55:41.844Z,92328.84
2023-01-15T08:58:14.442Z,92333.28
2023-01-15T09:00:47.942Z,92331.75
2023-01-15T09:03:20.211Z,92336.63
2023-01-15T09:05:52.270Z,92330.50
2023-01-15T09:08:24.251Z,92332.59
2023-01-15T09:10:58.030Z,92329.78
2023-01-15T09:13:30.322Z,92326.47
2023-01-15T09:16:03.382Z,92325.22
2023-01-15T09:18:36.314Z,92318.22
2023-01-15T09:21:08.532Z,92318.53
2023-01-15T09:23:40.629Z,92318.25
2023-01-15T09:26:27.322Z,92311.63
2023-01-15T09:28:59.871Z,92309.56
2023-01-15T09:31:32.563Z,92309.81
2023-01-15T09:34:04.591Z,92304.16
2023-01-15T09:36:36.701Z,92302.09
2023-01-15T09:39:09.565Z,92296.22
2023-01-15T09:42:07.427Z,92291.31
2023-01-15T09:44:44.342Z,92285.66
2023-01-15T09:47:19.018Z,92286.47
2023-01-15T09:49:57.632Z,92281.00
2023-01-15T09:52:37.515Z,92272.78
2023-01-15T09:55:12.758Z,92271.00
2023-01-15T09:57:46.037Z,92266.41
2023-01-15T10:00:19.087Z,92257.41
2023-01-15T10:02:54.229Z,92248.13
2023-01-15T10:05:29.008Z,92250.72
2023-01-15T10:08:04.355Z,92237.34
2023-01-15T10:10:41.236Z,92230.16
2023-01-15T10:13:21.573Z,92227.56
2023-01-15T10:15:53.676Z,92216.75
2023-01-15T10:18:27.307Z,92221.69
2023-01-15T10:21:07.955Z,92210.31
2023-01-15T10:23:46.604Z,92207.97
2023-01-15T10:26:28.093Z,92207.69
2023-01-15T10:29:02.719Z,92205.38
2023-01-15T10:31:41.516Z,92200.97
2023-01-15T10:34:24.478Z,92196.31
2023-01-15T10:36:59.212Z,92187.50
2023-01-15T10:39:35.815Z,92174.56
2023-01-15T10:42:13.079Z,92171.97
2023-01-15T10:44:50.072Z,92171.22
2023-01-15T10:47:25.588Z,92169.88
2023-01-15T10:49:59.310Z,92162.69
2023-01-15T10:52:33.066Z,92159.56
2023-01-15T10:55:10.883Z,92149.72
2023-01-15T10:57:49.865Z,92151.81
2023-01-15T11:00:25.779Z,92152.59
2023-01-15T11:03:02.491Z,92145.81
2023-01-15T11:05:35.517Z,92133.88
2023-01-15T11:08:58.279Z,92130.78
2023-01-15T11:11:15.781Z,92135.16
2023-01-15T11:14:12.050Z,92131.69
2023-01-15T11:17:17.730Z,92128.28
2023-01-15T11:19:52.248Z,92121.31
2023-01-15T11:22:26.670Z,92123.41
2023-01-15T11:24:59.913Z,92126.28
2023-01-15T11:27:33.757Z,92117.41
2023-01-15T11:30:06.914Z,92115.81
2023-01-15T11:32:39.645Z,92107.06
2023-01-15T11:35:14.787Z,92107.84
2023-01-15T11:37:46.871Z,92110.75
2023-01-15T11:40:19.747Z,92105.28
2023-01-15T11:43:10.096Z,92103.22
2023-01-15T11:46:06.785Z,92098.34
2023-01-15T11:49:04.542Z,92092.63
2023-01-15T11:51:40.682Z,92084.00
2023-01-15T11:54:14.521Z,92078.84
2023-01-15T11:56:47.827Z,92085.38
2023-01-15T11:59:20.325Z,92076.25
2023-01-15T12:01:58.739Z,92081.75
2023-01-15T12:04:34.335Z,92081.38
2023-01-15T12:07:11.460Z,92074.41
2023-01-15T12:09:54.454Z,92074.19
2023-01-15T12:12:34.025Z,92073.28
2023-01-15T12:15:12.292Z,92067.09
2023-01-15T12:18:02.252Z,92065.25
2023-01-15T12:20:40.259Z,92061.53
2023-01-15T12:23:20.435Z,92057.38
2023-01-15T12:25:57.055Z,92057.13
2023-01-15T12:28:31.528Z,92060.00
2023-01-15T12:31:07.336Z,92057.72
2023-01-15T12:33:44.783Z,92055.41
2023-01-15T12:36:19.565Z,92055.75
2023-01-15T12:38:54.887Z,92055.59
2023-01-15T12:41:49.866Z,92049.06
2023-01-15T12:44:44.792Z,92045.16
2023-01-15T12:47:18.590Z,92042.84
2023-01-15T12:49:53.261Z,92045.66
2023-01-15T12:52:28.406Z,92041.59
2023-01-15T12:55:06.422Z,92038.28
2023-01-15T12:57:40.208Z,92034.34
2023-01-15T13:00:15.339Z,92037.06
2023-01-15T13:02:55.699Z,92022.28
2023-01-15T13:05:29.312Z,92025.06
2023-01-15T13:08:05.911Z,92024.72
2023-01-15T13:10:39.762Z,92026.19
2023-01-15T13:13:15.127Z,92029.13
2023-01-15T13:15:55.356Z,92023.00
2023-01-15T13:18:31.951Z,92015.56
2023-01-15T13:21:08.843Z,92015.41
2023-01-15T13:23:51.524Z,92011.69
2023-01-15T13:26:32.320Z,92016.94
2023-01-15T13:29:10.660Z,92012.09
2023-01-15T13:31:49.128Z,92007.13
2023-01-15T13:34:26.636Z,91997.72
2023-01-15T13:37:02.589Z,92000.66
2023-01-15T13:39:38.829Z,92001.41
2023-01-15T13:42:33.559Z,91996.53
2023-01-15T13:45:25.803Z,91997.72
2023-01-15T13:47:58.819Z,92008.88
2023-01-15T13:50:31.529Z,92002.34
2023-01-15T13:53:06.003Z,92001.97
2023-01-15T13:55:40.450Z,91997.66
2023-01-15T13:58:20.705Z,91998.94
2023-01-15T14:01:08.799Z,91996.44
2023-01-15T14:03:41.562Z,91993.63
2023-01-15T14:06:14.258Z,91989.41
2023-01-15T14:08:46.784Z,91993.34
2023-01-15T14:11:34.842Z,92001.06
2023-01-15T14:14:25.421Z,91999.88
2023-01-15T14:17:04.865Z,91993.00
2023-01-15T14:19:46.505Z,91991.09
2023-01-15T14:22:43.744Z,91992.50
2023-01-15T14:25:20.607Z,91988.44
2023-01-15T14:28:01.448Z,91999.47
2023-01-15T14:30:40.294Z,91997.59
2023-01-15T14:33:20.396Z,92006.63
2023-01-15T14:35:52.759Z,92000.56
2023-01-15T14:38:27.200Z,91997.97
2023-01-15T14:41:00.890Z,92000.19
2023-01-15T14:43:35.853Z,91990.91
2023-01-15T14:46:12.538Z,91987.56
2023-01-15T14:48:44.648Z,91987.34
2023-01-15T14:51:18.168Z,91990.44
2023-01-15T14:53:51.781Z,91987.13
2023-01-15T14:56:27.515Z,91986.69
2023-01-15T14:59:03.195Z,91995.00
2023-01-15T15:01:42.742Z,91991.94
2023-01-15T15:04:19.836Z,91997.50
2023-01-15T15:06:53.722Z,91998.03
2023-01-15T15:09:28.106Z,91999.53
2023-01-15T15:12:21.049Z,91996.13
2023-01-15T15:14:58.416Z,92002.09
2023-01-15T15:17:33.911Z,92001.31
2023-01-15T15:20:23.603Z,92002.63
2023-01-15T15:22:57.794Z,91998.78
2023-01-15T15:25:33.000Z,91996.47
2023-01-15T15:28:05.831Z,91998.00
2023-01-15T15:30:42.510Z,91999.56
2023-01-15T15:33:17.208Z,92002.69
2023-01-15T15:35:50.893Z,91989.50
2023-01-15T15:38:23.759Z,91992.59
2023-01-15T15:40:58.305Z,91995.72
2023-01-15T15:43:57.655Z,91995.97
2023-01-15T15:46:49.421Z,91997.03
2023-01-15T15:49:21.430Z,92001.66
2023-01-15T15:51:53.901Z,91998.31
2023-01-15T15:54:27.233Z,91996.25
2023-01-15T15:57:02.612Z,91999.13
2023-01-15T15:59:36.247Z,91998.63
2023-01-15T16:02:15.468Z,91992.41
2023-01-15T16:04:48.497Z,91995.78
2023-01-15T16:07:25.705Z,91989.56
2023-01-15T16:09:59.230Z,91994.22
2023-01-15T16:12:33.551Z,91993.19
2023-01-15T16:15:07.926Z,91997.06
2023-01-15T16:17:41.424Z,91997.31
2023-01-15T16:20:15.632Z,91991.38
2023-01-15T16:22:49.538Z,91991.38
2023-01-15T16:25:23.066Z,91996.28
2023-01-15T16:27:55.189Z,91997.56
2023-01-15T16:30:27.963Z,91998.31
2023-01-15T16:33:02.828Z,91992.59
2023-01-15T16:35:36.452Z,91997.00
2023-01-15T16:38:18.216Z,91987.41
2023-01-15T16:40:50.427Z,91987.31
2023-01-15T16:43:24.611Z,91988.88
2023-01-15T16:46:01.506Z,91990.91
2023-01-15T16:48:37.507Z,91988.81
2023-01-15T16:51:23.641Z,91992.19
2023-01-15T16:53:55.956Z,91983.41
2023-01-15T16:56:42.775Z,91975.63
2023-01-15T16:59:16.121Z,91984.34
2023-01-15T17:01:48.827Z,91985.00
2023-01-15T17:04:24.304Z,91981.66
2023-01-15T17:06:58.965Z,91982.88
2023-01-15T17:09:32.667Z,91980.91
2023-01-15T17:12:07.119Z,91981.06
2023-01-15T17:14:39.091Z,91983.91
2023-01-15T17:17:23.713Z,91985.94
2023-01-15T17:19:56.743Z,91979.75
2023-01-15T17:22:30.800Z,91980.81
2023-01-15T17:25:20.494Z,91983.16
2023-01-15T17:27:53.923Z,91982.41
2023-01-15T17:30:30.606Z,91972.16
2023-01-15T17:33:03.824Z,91978.09
2023-01-15T17:35:37.483Z,91971.97
2023-01-15T17:38:11.411Z,91983.09
2023-01-15T17:40:43.948Z,91979.41
2023-01-15T17:43:15.981Z,91978.66
2023-01-15T17:45:48.332Z,91975.22
2023-01-15T17:48:20.407Z,91968.34
2023-01-15T17:50:54.670Z,91974.59
2023-01-15T17:53:26.812Z,91971.72
2023-01-15T17:56:17.032Z,91978.50
2023-01-15T17:59:07.106Z,91969.31
2023-01-15T18:01:59.006Z,91973.63
2023-01-15T18:04:52.105Z,91967.38
2023-01-15T18:07:25.931Z,91966.56
2023-01-15T18:09:58.777Z,91957.25
2023-01-15T18:12:30.944Z,91953.56
2023-01-15T18:15:03.288Z,91955.66
2023-01-15T18:17:35.433Z,91960.38
2023-01-15T18:20:08.304Z,91951.97
2023-01-15T18:22:41.032Z,91962.56
2023-01-15T18:25:13.132Z,91956.97
2023-01-15T18:27:46.995Z,91959.91
2023-01-15T18:30:19.370Z,91964.38
2023-01-15T18:32:51.352Z,91957.16
2023-01-15T18:35:23.530Z,91968.06
2023-01-15T18:37:56.435Z,91961.91
2023-01-15T18:40:29.705Z,91961.94
2023-01-15T18:43:19.952Z,91956.59
2023-01-15T18:46:10.069Z,91960.75
2023-01-15T18:48:42.144Z,91950.94
2023-01-15T18:51:14.197Z,91945.00
2023-01-15T18:53:48.673Z,91946.59
2023-01-15T18:56:38.471Z,91941.94
2023-01-15T18:59:11.545Z,91942.97
2023-01-15T19:01:43.734Z,91945.84
2023-01-15T19:04:15.881Z,91943.28
2023-01-15T19:06:48.012Z,91945.88
2023-01-15T19:09:23.415Z,91953.09
2023-01-15T19:11:55.505Z,91950.28
2023-01-15T19:14:45.170Z,91953.63
2023-01-15T19:17:37.366Z,91958.50
2023-01-15T19:20:10.382Z,91956.13
2023-01-15T19:23:04.131Z,91956.19
2023-01-15T19:25:38.898Z,91950.25
2023-01-15T19:28:13.656Z,91958.47
2023-01-15T19:31:09.175Z,91953.78
2023-01-15T19:33:41.270Z,91954.88
2023-01-15T19:36:13.347Z,91953.81
2023-01-15T19:38:45.441Z,91947.13
2023-01-15T19:41:36.395Z,91949.13
2023-01-15T19:44:27.375Z,91943.28
2023-01-15T19:47:17.667Z,91942.50
2023-01-15T19:50:07.708Z,91952.31
2023-01-15T19:52:40.625Z,91942.25
2023-01-15T19:55:14.467Z,91938.88
2023-01-15T19:57:47.685Z,91931.38
2023-01-15T20:00:20.516Z,91944.53
2023-01-15T20:02:52.740Z,91930.84
2023-01-15T20:05:25.521Z,91933.69
2023-01-15T20:07:58.081Z,91934.50
2023-01-15T20:10:31.113Z,91938.63
2023-01-15T20:13:22.349Z,91938.13
2023-01-15T20:15:54.804Z,91937.81
2023-01-15T20:18:27.757Z,91930.13
2023-01-15T20:20:59.771Z,91928.06
2023-01-15T20:23:32.099Z,91923.38
2023-01-15T20:26:04.751Z,91928.31
2023-01-15T20:28:37.548Z,91930.09
2023-01-15T20:31:14.033Z,91922.34
2023-01-15T20:33:46.696Z,91920.25
2023-01-15T20:36:18.727Z,91887.50
2023-01-15T20:38:50.955Z,91923.66
2023-01-15T20:41:41.161Z,91919.06
2023-01-15T20:44:32.085Z,91917.72
2023-01-15T20:47:24.123Z,91916.19
2023-01-15T20:49:56.091Z,91917.22
2023-01-15T20:52:28.131Z,91914.09
2023-01-15T20:55:00.218Z,91914.91
2023-01-15T20:57:33.157Z,91919.00
2023-01-15T21:00:07.613Z,91915.66
2023-01-15T21:02:39.900Z,91915.63
2023-01-15T21:05:11.960Z,91922.06
2023-01-15T21:07:43.964Z,91913.78
2023-01-15T21:10:16.108Z,91912.75
2023-01-15T21:12:48.111Z,91914.56
2023-01-15T21:15:21.191Z,91915.88
2023-01-15T21:17:53.420Z,91912.78
2023-01-15T21:20:25.630Z,91905.84
2023-01-15T21:22:57.664Z,91901.97
2023-01-15T21:25:29.843Z,91903.75
2023-01-15T21:28:01.896Z,91896.53
2023-01-15T21:30:34.671Z,91891.13
2023-01-15T21:33:15.599Z,91901.16
2023-01-15T21:35:47.711Z,91897.84
2023-01-15T21:38:19.702Z,91909.69
2023-01-15T21:40:51.805Z,91905.59
2023-01-15T21:43:41.974Z,91913.06
2023-01-15T21:46:14.825Z,91913.59
2023-01-15T21:48:46.973Z,91909.47
2023-01-15T21:51:19.057Z,91915.13
2023-01-15T21:53:51.096Z,91905.31
2023-01-15T21:56:23.143Z,91904.56
2023-01-15T21:58:55.154Z,91895.75
2023-01-15T22:01:28.524Z,91888.53
2023-01-15T22:04:01.036Z,91886.19
2023-01-15T22:06:33.436Z,91878.97
2023-01-15T22:09:05.616Z,91879.53
2023-01-15T22:11:43.618Z,91884.94
2023-01-15T22:14:16.640Z,91872.03
2023-01-15T22:16:49.450Z,91879.72
2023-01-15T22:19:22.795Z,91876.63
2023-01-15T22:21:56.325Z,91876.66
2023-01-15T22:24:29.558Z,91863.50
2023-01-15T22:27:02.342Z,91871.72
2023-01-15T22:29:37.526Z,91872.47
2023-01-15T22:32:11.383Z,91868.09
2023-01-15T22:34:43.527Z,91860.13
2023-01-15T22:37:15.756Z,91851.63
2023-01-15T22:39:49.244Z,91860.63
2023-01-15T22:42:24.353Z,91854.47
2023-01-15T22:44:58.521Z,91853.69
2023-01-15T22:47:31.288Z,91858.34
2023-01-15T22:50:03.968Z,91852.66
2023-01-15T22:52:38.411Z,91852.88
2023-01-15T22:55:10.514Z,91846.94
2023-01-15T22:57:42.634Z,91853.34
2023-01-15T23:00:15.280Z,91845.91
2023-01-15T23:02:54.112Z,91847.13
2023-01-15T23:05:26.161Z,91845.13
2023-01-15T23:07:58.223Z,91847.19
2023-01-15T23:10:30.255Z,91838.88
2023-01-15T23:13:02.317Z,91838.63
2023-01-15T23:15:34.462Z,91833.19
2023-01-15T23:18:07.197Z,91833.19
2023-01-15T23:20:40.009Z,91831.84
2023-01-15T23:23:12.132Z,91817.13
2023-01-15T23:25:44.272Z,91816.09
2023-01-15T23:28:17.084Z,91808.63
2023-01-15T23:30:49.205Z,91809.38
2023-01-15T23:33:21.880Z,91821.97
2023-01-15T23:35:54.053Z,91823.78
2023-01-15T23:38:26.167Z,91829.88
2023-01-15T23:40:58.239Z,91840.50
2023-01-15T23:43:48.191Z,91834.13
2023-01-15T23:46:32.489Z,91834.06
2023-01-15T23:49:06.412Z,91835.63
2023-01-15T23:51:38.528Z,91835.13
2023-01-15T23:54:10.906Z,91829.13
2023-01-15T23:56:44.749Z,91825.53
2023-01-15T23:59:16.927Z,91826.06
